createdAt,value
2018-11-12T00:00:15.954Z,15.50
2018-11-12T00:02:45.648Z,15.60
2018-11-12T00:05:13.331Z,15.60
2018-11-12T00:07:42.036Z,15.60
2018-11-12T00:10:10.506Z,15.50
2018-11-12T00:12:38.447Z,15.40
2018-11-12T00:15:07.312Z,15.50
2018-11-12T00:17:36.107Z,15.30
2018-11-12T00:20:04.066Z,15.20
2018-11-12T00:22:31.827Z,15.10
2018-11-12T00:25:02.524Z,15.10
2018-11-12T00:27:34.207Z,15.00
2018-11-12T00:30:04.039Z,15.00
2018-11-12T00:32:34.571Z,15.00
2018-11-12T00:35:04.723Z,15.10
2018-11-12T00:37:36.107Z,15.20
2018-11-12T00:40:04.480Z,15.10
2018-11-12T00:42:32.435Z,15.00
2018-11-12T00:45:01.041Z,14.90
2018-11-12T00:47:28.786Z,14.80
2018-11-12T00:49:58.187Z,14.80
2018-11-12T00:52:28.203Z,14.80
2018-11-12T00:54:56.043Z,14.70
2018-11-12T00:57:24.563Z,14.80
2018-11-12T00:59:52.653Z,14.80
2018-11-12T01:02:20.450Z,14.80
2018-11-12T01:04:48.374Z,14.80
2018-11-12T01:07:16.535Z,14.80
2018-11-12T01:09:44.355Z,14.60
2018-11-12T01:12:12.580Z,14.70
2018-11-12T01:14:40.530Z,14.70
2018-11-12T01:17:08.256Z,14.80
2018-11-12T01:19:36.080Z,14.80
2018-11-12T01:22:04.257Z,14.80
2018-11-12T01:24:32.430Z,14.90
2018-11-12T01:27:00.704Z,14.80
2018-11-12T01:29:28.696Z,14.90
2018-11-12T01:31:56.738Z,14.80
2018-11-12T01:34:24.540Z,14.90
2018-11-12T01:36:52.340Z,14.70
2018-11-12T01:39:20.036Z,14.60
2018-11-12T01:41:48.666Z,14.60
2018-11-12T01:44:16.623Z,14.70
2018-11-12T01:46:44.672Z,14.70
2018-11-12T01:49:12.369Z,14.60
2018-11-12T01:51:41.355Z,14.60
2018-11-12T01:54:09.187Z,14.70
2018-11-12T01:56:36.959Z,14.70
2018-11-12T01:59:04.883Z,14.90
2018-11-12T02:01:32.668Z,15.00
2018-11-12T02:04:00.472Z,14.90
2018-11-12T02:06:28.339Z,14.90
2018-11-12T02:08:56.232Z,14.80
2018-11-12T02:11:24.618Z,14.70
2018-11-12T02:13:52.623Z,14.70
2018-11-12T02:16:20.416Z,14.80
2018-11-12T02:18:48.753Z,14.70
2018-11-12T02:21:16.469Z,14.70
2018-11-12T02:23:44.343Z,14.70
2018-11-12T02:26:12.340Z,14.70
2018-11-12T02:28:40.255Z,14.60
2018-11-12T02:31:08.566Z,14.50
2018-11-12T02:33:36.321Z,14.60
2018-11-12T02:36:06.076Z,14.60
2018-11-12T02:38:33.896Z,14.40
2018-11-12T02:41:02.857Z,14.30
2018-11-12T02:43:31.274Z,14.30
2018-11-12T02:46:10.469Z,14.40
2018-11-12T02:48:38.314Z,14.40
2018-11-12T02:51:06.613Z,14.50
2018-11-12T02:53:34.336Z,14.50
2018-11-12T02:56:02.641Z,14.40
2018-11-12T02:58:31.160Z,14.20
2018-11-12T03:00:59.003Z,14.10
2018-11-12T03:03:27.243Z,14.00
2018-11-12T03:05:55.151Z,14.10
2018-11-12T03:08:23.290Z,14.20
2018-11-12T03:10:54.445Z,14.20
2018-11-12T03:13:22.325Z,14.30
2018-11-12T03:15:51.967Z,14.40
2018-11-12T03:18:21.743Z,14.20
2018-11-12T03:20:50.702Z,14.20
2018-11-12T03:23:19.605Z,13.90
2018-11-12T03:25:47.689Z,14.00
2018-11-12T03:28:15.488Z,13.90
2018-11-12T03:30:44.784Z,14.10
2018-11-12T03:33:16.965Z,14.10
2018-11-12T03:35:44.733Z,14.00
2018-11-12T03:38:12.546Z,14.20
2018-11-12T03:40:40.375Z,14.20
2018-11-12T03:43:08.289Z,14.20
2018-11-12T03:45:45.003Z,14.30
2018-11-12T03:48:12.971Z,14.20
2018-11-12T03:50:43.773Z,13.90
2018-11-12T03:53:11.760Z,14.10
2018-11-12T03:55:39.542Z,14.10
2018-11-12T03:58:07.926Z,14.10
2018-11-12T04:00:35.895Z,14.00
2018-11-12T04:03:04.582Z,14.10
2018-11-12T04:05:32.940Z,14.00
2018-11-12T04:08:00.872Z,14.10
2018-11-12T04:10:28.767Z,14.10
2018-11-12T04:12:56.552Z,14.20
2018-11-12T04:15:25.255Z,14.10
2018-11-12T04:17:55.213Z,14.20
2018-11-12T04:20:23.800Z,14.30
2018-11-12T04:22:57.116Z,14.20
2018-11-12T04:25:25.124Z,14.30
2018-11-12T04:27:54.513Z,14.10
2018-11-12T04:30:22.249Z,14.20
2018-11-12T04:32:50.052Z,14.30
2018-11-12T04:35:17.804Z,14.20
2018-11-12T04:37:45.592Z,14.40
2018-11-12T04:40:17.335Z,14.50
2018-11-12T04:42:46.976Z,14.50
2018-11-12T04:45:15.946Z,14.50
2018-11-12T04:47:44.490Z,14.30
2018-11-12T04:50:14.551Z,14.40
2018-11-12T04:52:43.448Z,14.30
2018-11-12T04:55:13.384Z,14.30
2018-11-12T04:57:41.764Z,14.40
2018-11-12T05:00:12.668Z,14.30
2018-11-12T05:02:40.468Z,14.30
2018-11-12T05:05:09.215Z,14.20
2018-11-12T05:07:38.315Z,14.30
2018-11-12T05:10:07.988Z,14.30
2018-11-12T05:12:38.417Z,14.30
2018-11-12T05:15:07.853Z,14.40
2018-11-12T05:17:36.041Z,14.40
2018-11-12T05:20:04.832Z,14.30
2018-11-12T05:22:32.522Z,14.30
2018-11-12T05:25:00.340Z,14.40
2018-11-12T05:30:17.227Z,14.20
2018-11-12T05:32:44.984Z,14.10
2018-11-12T05:35:13.971Z,14.30
2018-11-12T05:37:47.129Z,14.30
2018-11-12T05:40:19.162Z,14.30
2018-11-12T05:43:04.202Z,14.00
2018-11-12T05:45:32.239Z,14.20
2018-11-12T05:47:59.995Z,14.30
2018-11-12T05:50:28.994Z,14.40
2018-11-12T05:52:59.113Z,14.40
2018-11-12T05:55:27.832Z,14.50
2018-11-12T05:57:55.541Z,14.50
2018-11-12T06:00:24.527Z,14.50
2018-11-12T06:02:52.772Z,14.40
2018-11-12T06:05:20.822Z,14.40
2018-11-12T06:07:48.643Z,14.30
2018-11-12T06:10:21.425Z,14.50
2018-11-12T06:12:49.476Z,14.50
2018-11-12T06:15:18.298Z,14.50
2018-11-12T06:17:47.307Z,14.50
2018-11-12T06:20:17.333Z,14.60
2018-11-12T06:22:46.053Z,14.60
2018-11-12T06:25:15.579Z,14.50
2018-11-12T06:27:51.257Z,14.50
2018-11-12T06:30:37.981Z,14.50
2018-11-12T06:33:06.021Z,14.60
2018-11-12T06:35:33.906Z,14.60
2018-11-12T06:38:02.351Z,14.60
2018-11-12T06:40:30.321Z,14.50
2018-11-12T06:42:58.212Z,14.60
2018-11-12T06:45:27.500Z,14.70
2018-11-12T06:47:55.845Z,14.60
2018-11-12T06:50:24.783Z,14.70
2018-11-12T06:52:53.637Z,14.70
2018-11-12T06:55:22.380Z,14.60
2018-11-12T06:57:51.116Z,14.50
2018-11-12T07:00:23.895Z,14.70
2018-11-12T07:02:51.839Z,14.70
2018-11-12T07:05:19.642Z,14.70
2018-11-12T07:07:47.348Z,14.70
2018-11-12T07:10:16.435Z,14.70
2018-11-12T07:12:44.815Z,14.70
2018-11-12T07:15:16.708Z,14.70
2018-11-12T07:17:44.472Z,14.90
2018-11-12T07:20:14.677Z,14.90
2018-11-12T07:22:42.492Z,14.90
2018-11-12T07:25:11.301Z,14.80
2018-11-12T07:27:38.988Z,14.80
2018-11-12T07:30:10.474Z,14.80
2018-11-12T07:32:38.189Z,14.80
2018-11-12T07:35:08.423Z,14.90
2018-11-12T07:37:36.139Z,14.90
2018-11-12T07:40:04.774Z,14.90
2018-11-12T07:42:32.969Z,14.80
2018-11-12T07:45:00.707Z,15.00
2018-11-12T07:47:28.736Z,15.00
2018-11-12T07:49:56.503Z,15.00
2018-11-12T07:52:24.402Z,15.10
2018-11-12T07:54:52.209Z,15.10
2018-11-12T07:57:19.922Z,15.10
2018-11-12T07:59:47.767Z,15.20
2018-11-12T08:02:15.560Z,15.10
2018-11-12T08:04:43.407Z,15.10
2018-11-12T08:07:11.172Z,15.10
2018-11-12T08:09:38.913Z,15.20
2018-11-12T08:12:06.789Z,15.20
2018-11-12T08:14:34.745Z,15.30
2018-11-12T08:17:03.444Z,15.40
2018-11-12T08:19:31.459Z,15.30
2018-11-12T08:21:59.201Z,15.40
2018-11-12T08:24:27.022Z,15.40
2018-11-12T08:26:54.918Z,15.30
2018-11-12T08:29:22.775Z,15.40
2018-11-12T08:31:50.601Z,15.50
2018-11-12T08:34:18.502Z,15.50
2018-11-12T08:36:46.265Z,15.50
2018-11-12T08:39:14.096Z,15.50
2018-11-12T08:41:41.755Z,15.60
2018-11-12T08:44:09.418Z,15.60
2018-11-12T08:46:37.219Z,15.50
2018-11-12T08:49:05.172Z,15.50
2018-11-12T08:51:32.747Z,15.70
2018-11-12T08:54:00.706Z,15.70
2018-11-12T08:56:28.605Z,15.70
2018-11-12T08:58:56.327Z,15.70
2018-11-12T09:01:24.154Z,15.60
2018-11-12T09:03:52.265Z,15.80
2018-11-12T09:06:19.979Z,15.80
2018-11-12T09:08:47.926Z,15.80
2018-11-12T09:11:15.840Z,15.40
2018-11-12T09:13:44.064Z,15.40
2018-11-12T09:16:11.398Z,15.40
2018-11-12T09:18:39.254Z,15.60
2018-11-12T09:21:07.091Z,15.70
2018-11-12T09:23:34.837Z,15.70
2018-11-12T09:26:02.632Z,15.80
2018-11-12T09:31:20.878Z,16.10
2018-11-12T09:33:48.036Z,16.10
2018-11-12T09:36:16.362Z,16.20
2018-11-12T09:38:45.545Z,16.20
2018-11-12T09:41:14.219Z,16.30
2018-11-12T09:43:43.224Z,16.20
2018-11-12T09:46:15.436Z,16.20
2018-11-12T09:48:43.721Z,16.40
2018-11-12T09:51:11.908Z,16.40
2018-11-12T09:53:40.386Z,16.50
2018-11-12T09:56:08.715Z,16.40
2018-11-12T09:58:37.035Z,16.40
2018-11-12T10:01:05.838Z,16.60
2018-11-12T10:03:38.232Z,16.70
2018-11-12T10:06:06.728Z,16.70
2018-11-12T10:08:38.526Z,16.80
2018-11-12T10:11:06.976Z,16.60
2018-11-12T10:13:35.129Z,16.60
2018-11-12T10:16:03.099Z,16.70
2018-11-12T10:18:28.464Z,16.60
2018-11-12T10:20:56.639Z,16.70
2018-11-12T10:23:25.022Z,16.70
2018-11-12T10:25:53.166Z,16.70
2018-11-12T10:28:22.145Z,16.80
2018-11-12T10:30:50.625Z,16.70
2018-11-12T10:33:19.242Z,16.70
2018-11-12T10:35:47.379Z,16.70
2018-11-12T10:38:16.620Z,16.80
2018-11-12T10:40:45.073Z,16.90
2018-11-12T10:43:13.283Z,16.90
2018-11-12T10:45:41.495Z,16.90
2018-11-12T10:48:09.776Z,17.00
2018-11-12T10:50:37.920Z,16.90
2018-11-12T10:53:06.161Z,16.90
2018-11-12T10:55:34.490Z,16.90
2018-11-12T10:58:02.546Z,16.80
2018-11-12T11:00:37.306Z,16.90
2018-11-12T11:03:12.665Z,17.00
2018-11-12T11:05:42.474Z,16.90
2018-11-12T11:08:10.696Z,17.00
2018-11-12T11:10:38.806Z,17.00
2018-11-12T11:13:07.433Z,17.00
2018-11-12T11:15:36.208Z,16.90
2018-11-12T11:18:04.662Z,17.10
2018-11-12T11:20:32.925Z,17.20
2018-11-12T11:23:01.597Z,17.20
2018-11-12T11:25:30.083Z,17.20
2018-11-12T11:27:58.885Z,17.30
2018-11-12T11:30:27.085Z,17.30
2018-11-12T11:32:55.245Z,17.20
2018-11-12T11:35:23.603Z,17.20
2018-11-12T11:37:51.903Z,17.20
2018-11-12T11:40:21.785Z,17.10
2018-11-12T11:42:50.007Z,17.10
2018-11-12T11:45:18.226Z,17.20
2018-11-12T11:47:46.843Z,17.20
2018-11-12T11:50:15.791Z,17.20
2018-11-12T11:52:43.466Z,17.20
2018-11-12T11:55:13.717Z,17.20
2018-11-12T11:57:41.665Z,17.10
2018-11-12T12:00:14.676Z,17.30
2018-11-12T12:02:43.141Z,17.30
2018-11-12T12:05:12.162Z,17.10
2018-11-12T12:07:40.527Z,17.10
2018-11-12T12:10:08.823Z,17.10
2018-11-12T12:12:37.143Z,17.20
2018-11-12T12:15:06.528Z,17.10
2018-11-12T12:17:34.726Z,17.10
2018-11-12T12:20:02.506Z,17.00
2018-11-12T12:22:30.140Z,17.10
2018-11-12T12:24:58.856Z,17.10
2018-11-12T12:27:26.573Z,17.10
2018-11-12T12:29:59.217Z,17.10
2018-11-12T12:32:34.377Z,17.20
2018-11-12T12:35:02.103Z,17.20
2018-11-12T12:37:35.348Z,17.30
2018-11-12T12:40:03.315Z,17.30
2018-11-12T12:42:31.129Z,17.40
2018-11-12T12:44:59.514Z,17.40
2018-11-12T12:47:27.092Z,17.50
2018-11-12T12:49:54.921Z,17.50
2018-11-12T12:52:23.098Z,17.50
2018-11-12T12:54:50.809Z,17.60
2018-11-12T12:57:18.553Z,17.60
2018-11-12T12:59:46.299Z,17.70
2018-11-12T13:02:14.065Z,17.60
2018-11-12T13:04:41.975Z,17.60
2018-11-12T13:07:09.903Z,17.60
2018-11-12T13:09:37.711Z,17.70
2018-11-12T13:12:05.549Z,18.00
2018-11-12T13:14:33.381Z,18.00
2018-11-12T13:17:00.925Z,18.00
2018-11-12T13:19:28.667Z,17.90
2018-11-12T13:21:56.444Z,17.80
2018-11-12T13:24:24.143Z,17.80
2018-11-12T13:26:51.976Z,17.80
2018-11-12T13:29:20.158Z,17.80
2018-11-12T13:31:47.984Z,17.80
2018-11-12T13:34:15.656Z,17.80
2018-11-12T13:36:43.471Z,17.90
2018-11-12T13:39:12.255Z,17.90
2018-11-12T13:41:40.374Z,17.90
2018-11-12T13:44:08.064Z,18.00
2018-11-12T13:46:41.570Z,18.00
2018-11-12T13:49:09.272Z,18.00
2018-11-12T13:51:37.160Z,17.90
2018-11-12T13:54:05.227Z,17.80
2018-11-12T13:56:32.914Z,17.90
2018-11-12T13:59:00.867Z,18.00
2018-11-12T14:01:28.795Z,18.00
2018-11-12T14:03:56.953Z,18.00
2018-11-12T14:06:24.620Z,18.00
2018-11-12T14:08:52.462Z,18.00
2018-11-12T14:11:20.411Z,18.00
2018-11-12T14:13:48.283Z,18.00
2018-11-12T14:16:15.948Z,18.40
2018-11-12T14:18:43.765Z,18.50
2018-11-12T14:21:11.636Z,18.50
2018-11-12T14:23:39.350Z,18.60
2018-11-12T14:26:07.144Z,18.50
2018-11-12T14:28:35.128Z,18.80
2018-11-12T14:31:02.977Z,18.80
2018-11-12T14:33:30.716Z,18.70
2018-11-12T14:35:58.500Z,18.60
2018-11-12T14:38:26.089Z,18.80
2018-11-12T14:40:57.011Z,18.90
2018-11-12T14:43:24.722Z,18.90
2018-11-12T14:45:52.553Z,18.70
2018-11-12T14:48:20.538Z,18.60
2018-11-12T14:50:48.331Z,18.60
2018-11-12T14:53:16.562Z,18.50
2018-11-12T14:55:44.261Z,18.50
2018-11-12T14:58:12.191Z,18.40
2018-11-12T15:00:40.211Z,18.40
2018-11-12T15:03:07.921Z,18.40
2018-11-12T15:05:35.722Z,18.40
2018-11-12T15:08:03.457Z,18.30
2018-11-12T15:10:31.145Z,18.40
2018-11-12T15:12:58.901Z,18.30
2018-11-12T15:15:28.076Z,18.30
2018-11-12T15:17:55.885Z,18.20
2018-11-12T15:20:23.582Z,18.20
2018-11-12T15:22:51.420Z,18.20
2018-11-12T15:25:20.490Z,18.20
2018-11-12T15:27:48.231Z,18.20
2018-11-12T15:30:18.302Z,18.20
2018-11-12T15:32:47.151Z,18.10
2018-11-12T15:35:15.270Z,18.10
2018-11-12T15:37:43.811Z,18.10
2018-11-12T15:40:12.045Z,18.00
2018-11-12T15:42:40.179Z,17.90
2018-11-12T15:45:09.965Z,17.90
2018-11-12T15:47:37.815Z,17.90
2018-11-12T15:50:09.015Z,17.90
2018-11-12T15:52:36.824Z,18.00
2018-11-12T15:55:05.391Z,18.00
2018-11-12T15:57:33.277Z,18.00
2018-11-12T16:00:01.185Z,18.00
2018-11-12T16:02:29.098Z,18.00
2018-11-12T16:04:57.091Z,17.90
2018-11-12T16:07:24.734Z,17.90
2018-11-12T16:09:52.584Z,17.90
2018-11-12T16:12:21.398Z,17.90
2018-11-12T16:14:49.815Z,18.00
2018-11-12T16:17:17.760Z,17.90
2018-11-12T16:19:46.509Z,17.90
2018-11-12T16:22:14.778Z,17.90
2018-11-12T16:24:44.628Z,17.90
2018-11-12T16:27:12.481Z,17.90
2018-11-12T16:29:40.359Z,17.90
2018-11-12T16:32:08.311Z,17.90
2018-11-12T16:34:36.052Z,17.80
2018-11-12T16:37:12.043Z,17.90
2018-11-12T16:39:47.261Z,17.90
2018-11-12T16:42:14.964Z,17.90
2018-11-12T16:44:42.784Z,17.90
2018-11-12T16:47:10.567Z,17.90
2018-11-12T16:49:38.304Z,18.00
2018-11-12T16:52:06.255Z,17.90
2018-11-12T16:54:38.293Z,17.80
2018-11-12T16:57:09.166Z,17.40
2018-11-12T16:59:36.997Z,16.40
2018-11-12T17:02:06.411Z,16.50
2018-11-12T17:04:34.440Z,16.70
2018-11-12T17:07:02.222Z,16.90
2018-11-12T17:09:30.101Z,16.90
2018-11-12T17:11:58.050Z,16.90
2018-11-12T17:14:25.654Z,16.40
2018-11-12T17:16:53.479Z,16.30
2018-11-12T17:19:21.163Z,16.20
2018-11-12T17:22:01.651Z,16.20
2018-11-12T17:24:32.243Z,16.20
2018-11-12T17:27:00.066Z,16.20
2018-11-12T17:29:41.161Z,16.30
2018-11-12T17:32:09.202Z,16.10
2018-11-12T17:34:36.954Z,16.20
2018-11-12T17:37:05.028Z,16.10
2018-11-12T17:39:32.774Z,16.00
2018-11-12T17:42:04.319Z,16.00
2018-11-12T17:44:32.239Z,16.20
2018-11-12T17:47:01.160Z,16.10
2018-11-12T17:49:28.875Z,16.20
2018-11-12T17:51:56.622Z,16.40
2018-11-12T17:54:24.477Z,16.40
2018-11-12T17:56:53.187Z,16.30
2018-11-12T17:59:21.869Z,16.40
2018-11-12T18:01:50.228Z,16.50
2018-11-12T18:04:17.985Z,16.40
2018-11-12T18:06:45.759Z,16.40
2018-11-12T18:09:16.086Z,16.40
2018-11-12T18:11:49.490Z,16.40
2018-11-12T18:14:18.003Z,16.50
2018-11-12T18:16:46.241Z,16.30
2018-11-12T18:19:14.281Z,16.40
2018-11-12T18:21:45.981Z,16.40
2018-11-12T18:24:13.791Z,16.50
2018-11-12T18:26:42.136Z,16.50
2018-11-12T18:29:15.887Z,16.50
2018-11-12T18:31:44.514Z,16.30
2018-11-12T18:34:12.128Z,16.10
2018-11-12T18:36:40.361Z,16.20
2018-11-12T18:39:08.709Z,16.40
2018-11-12T18:41:45.864Z,16.50
2018-11-12T18:44:14.287Z,16.40
2018-11-12T18:46:49.288Z,16.40
2018-11-12T18:49:33.957Z,16.30
2018-11-12T18:52:02.257Z,16.60
2018-11-12T18:54:37.724Z,16.50
2018-11-12T18:57:09.987Z,16.50
2018-11-12T18:59:38.918Z,16.60
2018-11-12T19:02:07.257Z,16.70
2018-11-12T19:04:37.674Z,16.10
2018-11-12T19:07:05.976Z,15.90
2018-11-12T19:09:49.298Z,15.60
2018-11-12T19:12:23.475Z,15.60
2018-11-12T19:15:08.253Z,15.90
2018-11-12T19:17:36.477Z,16.20
2018-11-12T19:23:09.402Z,16.20
2018-11-12T19:25:40.176Z,16.20
2018-11-12T19:28:08.813Z,16.40
2018-11-12T19:39:54.214Z,16.40
2018-11-12T19:42:33.036Z,16.30
2018-11-12T19:45:00.759Z,16.50
2018-11-12T19:50:13.108Z,16.60
2018-11-12T19:52:52.379Z,16.20
2018-11-12T19:55:20.493Z,16.20
2018-11-12T19:57:55.531Z,16.50
2018-11-12T20:06:37.249Z,16.60
2018-11-12T20:12:25.480Z,16.80
2018-11-12T20:14:54.249Z,16.70
2018-11-12T20:17:23.384Z,16.80
2018-11-12T20:20:01.075Z,16.60
2018-11-12T20:22:46.404Z,16.60
2018-11-12T20:25:23.719Z,16.40
2018-11-12T20:28:00.902Z,16.70
2018-11-12T20:30:34.372Z,16.70
2018-11-12T20:35:41.363Z,16.70
2018-11-12T20:38:10.860Z,16.60
2018-11-12T20:40:40.107Z,16.70
2018-11-12T20:43:08.919Z,16.70
2018-11-12T20:45:37.434Z,16.40
2018-11-12T20:48:14.371Z,16.50
2018-11-12T20:50:55.031Z,16.60
2018-11-12T20:53:25.024Z,16.40
2018-11-12T20:55:55.173Z,16.60
2018-11-12T20:58:24.253Z,16.80
2018-11-12T21:00:52.134Z,16.50
2018-11-12T21:03:20.606Z,16.60
2018-11-12T21:05:49.014Z,16.70
2018-11-12T21:08:36.890Z,16.50
2018-11-12T21:11:15.737Z,16.50
2018-11-12T21:13:44.077Z,16.50
2018-11-12T21:16:12.497Z,16.50
2018-11-12T21:18:41.088Z,16.50
2018-11-12T21:21:22.270Z,16.50
2018-11-12T21:24:13.314Z,16.50
2018-11-12T21:26:41.668Z,16.00
2018-11-12T21:29:09.893Z,15.90
2018-11-12T21:31:37.754Z,16.20
2018-11-12T21:34:05.694Z,16.30
2018-11-12T21:36:33.845Z,16.30
2018-11-12T21:39:01.815Z,16.40
2018-11-12T21:41:29.662Z,16.50
2018-11-12T21:43:58.108Z,16.50
2018-11-12T21:46:26.251Z,16.30
2018-11-12T21:48:54.628Z,16.40
2018-11-12T21:51:22.451Z,16.40
2018-11-12T21:53:50.469Z,15.90
2018-11-12T22:02:08.276Z,16.20
2018-11-12T22:04:48.068Z,16.00
2018-11-12T22:07:29.339Z,16.20
2018-11-12T22:09:57.076Z,16.00
2018-11-12T22:12:25.112Z,16.30
2018-11-12T22:14:53.004Z,16.40
2018-11-12T22:17:20.843Z,16.60
2018-11-12T22:19:49.018Z,16.50
2018-11-12T22:22:17.342Z,16.50
2018-11-12T22:24:45.461Z,16.50
2018-11-12T22:27:13.118Z,16.30
2018-11-12T22:29:41.328Z,16.20
2018-11-12T22:32:10.184Z,16.10
2018-11-12T22:34:37.821Z,16.30
2018-11-12T22:37:05.384Z,16.40
2018-11-12T22:39:33.698Z,16.30
2018-11-12T22:42:01.427Z,16.00
2018-11-12T22:44:29.259Z,15.90
2018-11-12T22:46:56.871Z,16.00
2018-11-12T22:49:24.540Z,15.90
2018-11-12T22:51:52.450Z,15.90
2018-11-12T22:54:20.473Z,16.00
2018-11-12T22:56:48.147Z,16.20
2018-11-12T22:59:16.689Z,16.30
2018-11-12T23:01:49.175Z,16.30
2018-11-12T23:04:17.924Z,16.30
2018-11-12T23:06:45.736Z,16.30
2018-11-12T23:09:16.478Z,16.20
2018-11-12T23:11:45.595Z,16.30
2018-11-12T23:14:14.403Z,16.30
2018-11-12T23:16:42.852Z,16.00
2018-11-12T23:19:10.588Z,15.70
2018-11-12T23:21:39.238Z,15.60
2018-11-12T23:24:07.139Z,15.60
2018-11-12T23:26:37.059Z,15.90
2018-11-12T23:29:05.059Z,15.80
2018-11-12T23:31:32.899Z,16.00
2018-11-12T23:34:01.243Z,16.10
2018-11-12T23:36:29.032Z,16.00
2018-11-12T23:38:56.732Z,15.60
2018-11-12T23:41:24.987Z,15.70
2018-11-12T23:43:52.705Z,15.80
2018-11-12T23:46:20.519Z,16.10
2018-11-12T23:48:48.537Z,15.80
2018-11-12T23:51:16.238Z,16.00
2018-11-12T23:53:43.979Z,16.00
2018-11-12T23:56:11.841Z,15.70
2018-11-12T23:58:39.611Z,15.70
